createdAt,value
2019-04-05T00:01:53.878Z,6.78
2019-04-05T00:04:22.334Z,8.30
2019-04-05T00:06:50.774Z,6.70
2019-04-05T00:09:19.473Z,5.65
2019-04-05T00:11:47.772Z,10.53
2019-04-05T00:14:16.075Z,8.73
2019-04-05T00:16:44.455Z,7.28
2019-04-05T00:19:13.032Z,6.60
2019-04-05T00:21:41.340Z,7.65
2019-04-05T00:24:09.950Z,6.30
2019-04-05T00:26:38.684Z,8.30
2019-04-05T00:29:07.326Z,7.37
2019-04-05T00:31:35.993Z,6.70
2019-04-05T00:34:04.305Z,12.80
2019-04-05T00:36:32.596Z,6.30
2019-04-05T00:39:01.269Z,8.53
2019-04-05T00:41:32.833Z,6.87
2019-04-05T00:44:00.249Z,7.47
2019-04-05T00:46:28.556Z,6.95
2019-04-05T00:48:57.217Z,8.38
2019-04-05T00:51:25.512Z,6.08
2019-04-05T00:53:54.166Z,6.67
2019-04-05T00:56:22.481Z,7.12
2019-04-05T00:58:51.154Z,8.53
2019-04-05T01:01:19.825Z,6.65
2019-04-05T01:03:48.116Z,7.90
2019-04-05T01:06:16.780Z,7.83
2019-04-05T01:08:45.453Z,8.15
2019-04-05T01:11:13.757Z,8.03
2019-04-05T01:13:42.166Z,7.45
2019-04-05T01:16:10.527Z,6.37
2019-04-05T01:18:39.028Z,6.33
2019-04-05T01:21:07.666Z,7.53
2019-04-05T01:23:35.966Z,8.43
2019-04-05T01:26:04.279Z,6.90
2019-04-05T01:28:33.021Z,10.63
2019-04-05T01:31:01.709Z,6.62
2019-04-05T01:33:30.358Z,6.58
2019-04-05T01:35:59.891Z,8.35
2019-04-05T01:38:28.717Z,6.78
2019-04-05T01:41:16.468Z,7.40
2019-04-05T01:43:45.200Z,6.75
2019-04-05T01:46:13.892Z,9.13
2019-04-05T01:48:42.196Z,8.73
2019-04-05T01:51:10.505Z,6.60
2019-04-05T01:53:39.143Z,8.13
2019-04-05T01:56:07.808Z,10.43
2019-04-05T01:58:36.104Z,9.40
2019-04-05T02:01:04.777Z,7.33
2019-04-05T02:03:33.442Z,8.65
2019-04-05T02:06:02.153Z,6.60
2019-04-05T02:08:30.816Z,7.58
2019-04-05T02:10:59.478Z,7.47
2019-04-05T02:13:28.185Z,9.88
2019-04-05T02:16:05.730Z,7.70
2019-04-05T02:18:26.784Z,7.30
2019-04-05T02:20:55.077Z,8.83
2019-04-05T02:23:23.835Z,11.18
2019-04-05T02:25:52.420Z,9.93
2019-04-05T02:28:20.733Z,9.68
2019-04-05T02:30:49.434Z,9.43
2019-04-05T02:33:18.089Z,7.87
2019-04-05T02:35:46.455Z,8.03
2019-04-05T02:38:14.770Z,8.85
2019-04-05T02:40:43.319Z,7.60
2019-04-05T02:43:11.717Z,9.25
2019-04-05T02:45:40.035Z,8.85
2019-04-05T02:48:08.826Z,8.83
2019-04-05T02:50:37.405Z,9.40
2019-04-05T02:53:06.200Z,9.35
2019-04-05T02:55:35.197Z,7.95
2019-04-05T02:58:03.728Z,10.13
2019-04-05T03:00:32.089Z,9.15
2019-04-05T03:03:01.255Z,9.55
2019-04-05T03:05:31.028Z,8.83
2019-04-05T03:07:59.699Z,7.80
2019-04-05T03:10:53.368Z,8.03
2019-04-05T03:13:24.994Z,8.48
2019-04-05T03:15:53.909Z,7.72
2019-04-05T03:18:23.044Z,10.40
2019-04-05T03:20:51.348Z,9.28
2019-04-05T03:23:20.136Z,8.80
2019-04-05T03:25:48.838Z,8.03
2019-04-05T03:28:17.530Z,10.60
2019-04-05T03:30:46.618Z,8.28
2019-04-05T03:33:15.449Z,9.35
2019-04-05T03:35:44.453Z,17.07
2019-04-05T03:38:14.094Z,10.38
2019-04-05T03:40:43.045Z,12.37
2019-04-05T03:43:11.725Z,7.58
2019-04-05T03:45:40.026Z,9.25
2019-04-05T03:48:08.633Z,7.83
2019-04-05T03:50:37.413Z,12.43
2019-04-05T03:53:06.008Z,9.65
2019-04-05T03:55:34.786Z,9.68
2019-04-05T03:58:03.841Z,7.08
2019-04-05T04:00:32.181Z,10.50
2019-04-05T04:03:00.786Z,8.43
2019-04-05T04:05:29.451Z,9.63
2019-04-05T04:07:58.143Z,8.43
2019-04-05T04:10:26.541Z,8.55
2019-04-05T04:12:55.094Z,8.83
2019-04-05T04:15:24.629Z,8.03
2019-04-05T04:17:53.332Z,9.80
2019-04-05T04:20:31.541Z,9.28
2019-04-05T04:23:00.061Z,9.80
2019-04-05T04:25:28.779Z,13.18
2019-04-05T04:27:57.451Z,14.40
2019-04-05T04:30:25.934Z,10.75
2019-04-05T04:32:54.842Z,9.00
2019-04-05T04:35:23.551Z,8.75
2019-04-05T04:37:51.899Z,9.20
2019-04-05T04:40:20.483Z,14.33
2019-04-05T04:42:49.600Z,11.65
2019-04-05T04:45:18.248Z,9.80
2019-04-05T04:47:46.542Z,10.43
2019-04-05T04:50:15.381Z,11.03
2019-04-05T04:52:43.948Z,8.73
2019-04-05T04:55:12.671Z,9.10
2019-04-05T04:57:41.054Z,10.63
2019-04-05T05:00:09.548Z,13.25
2019-04-05T05:02:37.865Z,9.60
2019-04-05T05:05:07.393Z,10.68
2019-04-05T05:07:36.675Z,8.98
2019-04-05T05:10:10.438Z,12.58
2019-04-05T05:12:38.721Z,9.40
2019-04-05T05:15:07.156Z,11.38
2019-04-05T05:17:38.865Z,11.12
2019-04-05T05:20:07.225Z,20.45
2019-04-05T05:22:35.589Z,11.45
2019-04-05T05:25:05.855Z,9.78
2019-04-05T05:27:34.510Z,11.85
2019-04-05T05:30:03.246Z,13.28
2019-04-05T05:32:31.889Z,14.90
2019-04-05T05:35:02.366Z,14.07
2019-04-05T05:37:32.776Z,11.05
2019-04-05T05:40:00.897Z,14.45
2019-04-05T05:42:29.601Z,15.28
2019-04-05T05:44:58.278Z,13.72
2019-04-05T05:47:26.593Z,12.15
2019-04-05T05:49:56.044Z,12.10
2019-04-05T05:52:25.267Z,12.95
2019-04-05T05:54:53.880Z,13.13
2019-04-05T05:57:23.430Z,15.20
2019-04-05T05:59:52.048Z,16.70
2019-04-05T06:02:20.717Z,12.95
2019-04-05T06:04:49.401Z,16.70
2019-04-05T06:07:20.022Z,14.20
2019-04-05T06:09:47.997Z,13.40
2019-04-05T06:12:16.304Z,15.35
2019-04-05T06:14:44.601Z,13.50
2019-04-05T06:17:13.247Z,20.17
2019-04-05T06:19:41.905Z,18.73
2019-04-05T06:22:10.213Z,13.13
2019-04-05T06:24:38.885Z,13.90
2019-04-05T06:27:07.582Z,14.45
2019-04-05T06:29:36.271Z,13.65
2019-04-05T06:32:05.008Z,14.87
2019-04-05T06:34:33.633Z,18.87
2019-04-05T06:37:02.318Z,13.88
2019-04-05T06:39:30.618Z,16.48
2019-04-05T06:41:59.278Z,13.53
2019-04-05T06:44:28.117Z,14.65
2019-04-05T06:46:56.721Z,14.53
2019-04-05T06:49:25.025Z,16.65
2019-04-05T06:51:53.678Z,12.18
2019-04-05T06:54:22.325Z,16.12
2019-04-05T06:56:50.973Z,13.00
2019-04-05T06:59:19.468Z,13.62
2019-04-05T07:01:48.345Z,12.55
2019-04-05T07:04:16.668Z,12.10
2019-04-05T07:06:44.973Z,14.20
2019-04-05T07:09:13.671Z,12.47
2019-04-05T07:11:42.320Z,14.05
2019-04-05T07:14:10.646Z,13.38
2019-04-05T07:16:39.285Z,12.47
2019-04-05T07:19:08.408Z,15.32
2019-04-05T07:21:36.718Z,11.93
2019-04-05T07:24:05.482Z,12.07
2019-04-05T07:26:34.128Z,12.03
2019-04-05T07:29:02.680Z,10.70
2019-04-05T07:31:30.985Z,12.68
2019-04-05T07:33:59.356Z,14.10
2019-04-05T07:36:27.901Z,13.53
2019-04-05T07:38:56.205Z,12.05
2019-04-05T07:41:24.865Z,12.07
2019-04-05T07:43:53.242Z,16.65
2019-04-05T07:46:21.551Z,12.18
2019-04-05T07:48:49.921Z,14.63
2019-04-05T07:51:18.493Z,16.00
2019-04-05T07:53:47.190Z,12.05
2019-04-05T07:56:15.587Z,16.42
2019-04-05T07:58:44.144Z,13.58
2019-04-05T08:01:13.024Z,12.07
2019-04-05T08:03:42.003Z,12.75
2019-04-05T08:06:10.509Z,9.15
2019-04-05T08:08:45.651Z,6.90
2019-04-05T08:11:14.619Z,7.83
2019-04-05T08:13:44.563Z,8.70
2019-04-05T08:16:13.142Z,11.48
2019-04-05T08:18:41.878Z,11.20
2019-04-05T08:21:10.579Z,8.68
2019-04-05T08:23:40.003Z,10.13
2019-04-05T08:26:08.707Z,8.83
2019-04-05T08:28:37.359Z,9.35
2019-04-05T08:31:10.454Z,7.42
2019-04-05T08:33:36.574Z,12.73
2019-04-05T08:36:05.480Z,8.30
2019-04-05T08:38:34.156Z,6.92
2019-04-05T08:41:02.472Z,8.65
2019-04-05T08:43:31.120Z,13.25
2019-04-05T08:45:59.521Z,26.48
2019-04-05T08:48:28.077Z,9.38
2019-04-05T08:50:56.773Z,10.15
2019-04-05T08:53:25.449Z,9.35
2019-04-05T08:55:54.236Z,16.97
2019-04-05T08:58:32.871Z,10.53
2019-04-05T09:00:53.278Z,7.55
2019-04-05T09:03:22.650Z,5.22
2019-04-05T09:05:51.355Z,7.55
2019-04-05T09:08:21.414Z,13.03
2019-04-05T09:10:50.001Z,6.87
2019-04-05T09:13:18.616Z,17.07
2019-04-05T09:15:47.305Z,6.95
2019-04-05T09:18:15.607Z,9.83
2019-04-05T09:20:44.318Z,6.20
2019-04-05T09:23:12.990Z,8.93
2019-04-05T09:25:41.662Z,4.55
2019-04-05T09:28:09.956Z,21.75
2019-04-05T09:30:38.613Z,6.50
2019-04-05T09:33:06.923Z,8.25
2019-04-05T09:35:35.557Z,26.20
2019-04-05T09:38:03.930Z,10.15
2019-04-05T09:40:32.520Z,14.60
2019-04-05T09:43:00.888Z,6.05
2019-04-05T09:45:29.485Z,7.40
2019-04-05T09:47:57.789Z,4.33
2019-04-05T09:50:26.100Z,6.17
2019-04-05T09:52:54.753Z,7.78
2019-04-05T09:55:23.046Z,5.17
2019-04-05T09:57:51.805Z,7.05
2019-04-05T10:00:25.052Z,27.42
2019-04-05T10:02:53.672Z,4.08
2019-04-05T10:05:22.628Z,4.37
2019-04-05T10:07:55.329Z,11.03
2019-04-05T10:10:21.382Z,6.20
2019-04-05T10:12:50.107Z,4.47
2019-04-05T10:15:21.568Z,6.25
2019-04-05T10:17:49.086Z,4.97
2019-04-05T10:20:17.749Z,5.33
2019-04-05T10:22:46.061Z,4.55
2019-04-05T10:25:14.371Z,21.50
2019-04-05T10:27:42.990Z,7.42
2019-04-05T10:30:12.022Z,4.50
2019-04-05T10:32:41.603Z,3.85
2019-04-05T10:35:10.285Z,5.08
2019-04-05T10:37:38.998Z,15.00
2019-04-05T10:40:07.809Z,5.80
2019-04-05T10:42:36.916Z,4.50
2019-04-05T10:45:11.632Z,6.50
2019-04-05T10:47:39.952Z,5.50
2019-04-05T10:50:10.045Z,5.58
2019-04-05T10:52:38.461Z,7.97
2019-04-05T10:55:07.207Z,5.80
2019-04-05T10:57:35.818Z,6.50
2019-04-05T11:00:07.760Z,10.85
2019-04-05T11:02:36.456Z,4.33
2019-04-05T11:05:05.400Z,4.30
2019-04-05T11:07:35.169Z,4.12
2019-04-05T11:10:07.665Z,5.73
2019-04-05T11:12:36.153Z,4.47
2019-04-05T11:15:07.878Z,10.00
2019-04-05T11:17:36.340Z,5.33
2019-04-05T11:20:20.815Z,13.45
2019-04-05T11:22:39.472Z,4.62
2019-04-05T11:25:09.935Z,7.67
2019-04-05T11:27:38.466Z,5.95
2019-04-05T11:30:08.586Z,8.43
2019-04-05T11:32:37.062Z,4.67
2019-04-05T11:35:08.272Z,7.55
2019-04-05T11:37:39.385Z,3.30
2019-04-05T11:40:07.330Z,3.40
2019-04-05T11:42:35.897Z,6.15
2019-04-05T11:45:06.848Z,4.20
2019-04-05T11:50:03.697Z,3.95
2019-04-05T11:52:32.357Z,20.85
2019-04-05T11:55:00.985Z,7.67
2019-04-05T11:57:29.656Z,4.97
2019-04-05T11:59:58.148Z,5.83
2019-04-05T12:02:31.340Z,3.20
2019-04-05T12:05:00.105Z,3.55
2019-04-05T12:07:28.608Z,9.15
2019-04-05T12:09:57.302Z,5.33
2019-04-05T12:12:25.990Z,9.20
2019-04-05T12:14:54.376Z,3.72
2019-04-05T12:17:22.970Z,7.58
2019-04-05T12:19:51.650Z,3.45
2019-04-05T12:22:20.304Z,2.60
2019-04-05T12:24:48.973Z,4.87
2019-04-05T12:27:20.598Z,3.95
2019-04-05T12:29:47.713Z,4.87
2019-04-05T12:32:18.827Z,6.22
2019-04-05T12:34:49.508Z,6.65
2019-04-05T12:37:17.761Z,4.53
2019-04-05T12:39:46.065Z,12.80
2019-04-05T12:42:14.381Z,2.65
2019-04-05T12:44:45.107Z,9.33
2019-04-05T12:47:13.967Z,2.83
2019-04-05T12:49:45.213Z,4.37
2019-04-05T12:52:22.586Z,4.87
2019-04-05T12:54:43.921Z,2.67
2019-04-05T12:57:12.636Z,2.83
2019-04-05T12:59:40.938Z,2.35
2019-04-05T13:02:09.550Z,3.33
2019-04-05T13:04:38.181Z,2.47
2019-04-05T13:07:06.508Z,2.45
2019-04-05T13:09:35.173Z,3.37
2019-04-05T13:12:04.301Z,4.90
2019-04-05T13:14:32.933Z,2.17
2019-04-05T13:17:02.580Z,3.67
2019-04-05T13:19:31.545Z,3.58
2019-04-05T13:22:00.684Z,9.30
2019-04-05T13:24:30.557Z,2.80
2019-04-05T13:27:01.779Z,2.42
2019-04-05T13:29:29.145Z,3.37
2019-04-05T13:31:57.501Z,3.52
2019-04-05T13:34:26.540Z,3.25
2019-04-05T13:36:54.984Z,7.28
2019-04-05T13:39:23.552Z,9.88
2019-04-05T13:41:51.857Z,3.22
2019-04-05T13:44:20.504Z,5.60
2019-04-05T13:46:49.178Z,2.10
2019-04-05T13:49:17.476Z,4.95
2019-04-05T13:51:46.513Z,6.03
2019-04-05T13:54:15.600Z,3.70
2019-04-05T13:56:43.969Z,4.25
2019-04-05T13:59:12.375Z,3.58
2019-04-05T14:01:40.673Z,3.17
2019-04-05T14:04:09.233Z,4.03
2019-04-05T14:06:37.897Z,4.08
2019-04-05T14:09:10.244Z,15.45
2019-04-05T14:11:37.657Z,3.72
2019-04-05T14:14:09.662Z,3.30
2019-04-05T14:16:38.442Z,4.83
2019-04-05T14:19:07.762Z,3.30
2019-04-05T14:21:41.904Z,3.55
2019-04-05T14:24:06.484Z,4.22
2019-04-05T14:26:35.160Z,2.47
2019-04-05T14:29:04.223Z,4.37
2019-04-05T14:31:32.940Z,5.58
2019-04-05T14:34:10.462Z,3.17
2019-04-05T14:36:38.949Z,3.30
2019-04-05T14:39:11.021Z,4.75
2019-04-05T14:41:39.684Z,4.20
2019-04-05T14:44:08.455Z,3.12
2019-04-05T14:46:38.356Z,5.10
2019-04-05T14:49:07.453Z,2.95
2019-04-05T14:51:35.964Z,2.67
2019-04-05T14:54:04.791Z,4.42
2019-04-05T14:56:33.319Z,3.02
2019-04-05T14:59:02.028Z,3.70
2019-04-05T15:01:30.694Z,3.50
2019-04-05T15:03:59.390Z,5.95
2019-04-05T15:06:28.072Z,4.90
2019-04-05T15:08:56.451Z,4.22
2019-04-05T15:11:28.747Z,3.60
2019-04-05T15:13:55.389Z,3.55
2019-04-05T15:16:23.815Z,6.87
2019-04-05T15:18:52.512Z,5.28
2019-04-05T15:21:20.902Z,4.97
2019-04-05T15:23:49.292Z,5.60
2019-04-05T15:26:20.576Z,6.37
2019-04-05T15:28:48.477Z,13.88
2019-04-05T15:31:16.974Z,4.80
2019-04-05T15:33:45.690Z,8.13
2019-04-05T15:36:14.041Z,9.98
2019-04-05T15:38:42.682Z,3.95
2019-04-05T15:41:11.010Z,6.05
2019-04-05T15:43:39.409Z,5.17
2019-04-05T15:46:07.905Z,5.70
2019-04-05T15:48:36.535Z,5.25
2019-04-05T15:51:04.850Z,9.00
2019-04-05T15:53:33.564Z,10.95
2019-04-05T15:56:04.327Z,5.60
2019-04-05T15:58:34.073Z,5.12
2019-04-05T16:01:04.340Z,6.60
2019-04-05T16:03:33.237Z,7.60
2019-04-05T16:06:01.869Z,4.55
2019-04-05T16:08:30.629Z,4.95
2019-04-05T16:10:59.358Z,7.35
2019-04-05T16:13:27.710Z,4.25
2019-04-05T16:15:56.352Z,4.25
2019-04-05T16:18:24.982Z,4.28
2019-04-05T16:20:53.674Z,5.90
2019-04-05T16:23:21.969Z,4.83
2019-04-05T16:25:50.790Z,6.15
2019-04-05T16:28:19.285Z,7.75
2019-04-05T16:30:49.560Z,5.00
2019-04-05T16:33:17.892Z,5.25
2019-04-05T16:35:46.189Z,5.00
2019-04-05T16:38:14.512Z,5.00
2019-04-05T16:40:43.293Z,5.17
2019-04-05T16:43:11.843Z,5.72
2019-04-05T16:45:41.374Z,5.85
2019-04-05T16:48:10.040Z,6.70
2019-04-05T16:50:38.721Z,6.95
2019-04-05T16:53:07.388Z,6.30
2019-04-05T16:55:36.074Z,5.87
2019-04-05T16:58:04.751Z,6.50
2019-04-05T17:00:33.460Z,7.40
2019-04-05T17:03:02.553Z,6.47
2019-04-05T17:05:31.232Z,7.03
2019-04-05T17:07:59.994Z,6.90
2019-04-05T17:10:28.584Z,7.58
2019-04-05T17:12:57.309Z,9.13
2019-04-05T17:15:26.365Z,7.78
2019-04-05T17:17:55.088Z,7.35
2019-04-05T17:20:23.388Z,8.58
2019-04-05T17:22:58.002Z,7.25
2019-04-05T17:25:21.956Z,9.07
2019-04-05T17:27:50.638Z,8.70
2019-04-05T17:30:19.307Z,7.35
2019-04-05T17:32:47.620Z,8.55
2019-04-05T17:35:17.540Z,7.15
2019-04-05T17:37:46.682Z,8.35
2019-04-05T17:40:14.976Z,8.93
2019-04-05T17:42:43.569Z,8.93
2019-04-05T17:45:12.289Z,9.03
2019-04-05T17:47:40.689Z,9.00
2019-04-05T17:50:10.803Z,10.23
2019-04-05T17:52:39.428Z,9.63
2019-04-05T17:55:07.844Z,11.43
2019-04-05T17:57:36.501Z,10.35
2019-04-05T18:00:09.332Z,9.50
2019-04-05T18:02:38.078Z,10.55
2019-04-05T18:05:07.112Z,13.03
2019-04-05T18:07:35.517Z,10.10
2019-04-05T18:10:05.361Z,11.15
2019-04-05T18:12:33.942Z,9.53
2019-04-05T18:15:02.258Z,11.65
2019-04-05T18:17:30.914Z,11.43
2019-04-05T18:19:59.209Z,10.32
2019-04-05T18:22:27.954Z,10.82
2019-04-05T18:24:56.261Z,11.28
2019-04-05T18:27:24.957Z,9.33
2019-04-05T18:29:53.276Z,10.08
2019-04-05T18:32:21.895Z,10.53
2019-04-05T18:34:50.720Z,11.08
2019-04-05T18:37:19.668Z,9.48
2019-04-05T18:39:48.360Z,11.33
2019-04-05T18:42:16.770Z,10.30
2019-04-05T18:44:45.323Z,9.50
2019-04-05T18:47:13.735Z,11.35
2019-04-05T18:49:42.174Z,9.93
2019-04-05T18:52:10.532Z,10.30
2019-04-05T18:54:39.232Z,8.93
2019-04-05T18:57:07.960Z,8.85
2019-04-05T18:59:36.618Z,8.13
2019-04-05T19:02:05.278Z,8.93
2019-04-05T19:04:33.978Z,9.48
2019-04-05T19:07:02.661Z,7.50
2019-04-05T19:09:31.354Z,9.05
2019-04-05T19:12:00.077Z,9.70
2019-04-05T19:14:28.739Z,8.20
2019-04-05T19:16:59.277Z,9.95
2019-04-05T19:19:27.913Z,8.75
2019-04-05T19:21:56.409Z,9.93
2019-04-05T19:24:25.109Z,8.78
2019-04-05T19:26:54.860Z,8.18
2019-04-05T19:29:23.389Z,11.12
2019-04-05T19:49:23.481Z,6.17
2019-04-05T19:51:51.857Z,12.75
2019-04-05T19:54:20.194Z,9.25
2019-04-05T19:56:48.685Z,11.20
2019-04-05T19:59:17.357Z,10.32
2019-04-05T20:01:45.679Z,8.53
2019-04-05T20:04:14.009Z,8.35
2019-04-05T20:06:42.319Z,9.15
2019-04-05T20:09:10.614Z,10.63
2019-04-05T20:11:39.209Z,9.75
2019-04-05T20:14:07.817Z,9.48
2019-04-05T20:16:36.521Z,8.55
2019-04-05T20:19:05.223Z,11.50
2019-04-05T20:21:34.077Z,20.70
2019-04-05T20:24:13.700Z,21.77
2019-04-05T20:26:33.945Z,17.73
2019-04-05T20:29:02.356Z,13.32
2019-04-05T20:31:31.709Z,11.83
2019-04-05T20:34:00.261Z,9.78
2019-04-05T20:36:28.984Z,9.25
2019-04-05T20:38:57.668Z,8.60
2019-04-05T20:41:26.369Z,12.37
2019-04-05T20:43:55.108Z,9.93
2019-04-05T20:46:23.743Z,11.40
2019-04-05T20:48:52.112Z,7.40
2019-04-05T20:51:20.993Z,10.35
2019-04-05T20:53:49.372Z,12.13
2019-04-05T20:56:18.096Z,11.48
2019-04-05T20:58:47.153Z,10.50
2019-04-05T21:01:15.560Z,12.50
2019-04-05T21:03:44.148Z,11.73
2019-04-05T21:06:12.880Z,11.50
2019-04-05T21:08:41.474Z,10.70
2019-04-05T21:11:09.820Z,11.48
2019-04-05T21:13:38.880Z,10.38
2019-04-05T21:16:07.570Z,10.28
2019-04-05T21:18:36.248Z,10.48
2019-04-05T21:21:04.883Z,11.18
2019-04-05T21:23:33.599Z,9.83
2019-04-05T21:26:02.328Z,13.10
2019-04-05T21:28:30.967Z,9.43
2019-04-05T21:30:59.628Z,11.00
2019-04-05T21:33:28.356Z,14.00
2019-04-05T21:35:56.666Z,11.20
2019-04-05T21:38:24.993Z,13.75
2019-04-05T21:40:53.619Z,12.60
2019-04-05T23:13:11.783Z,44.30
2019-04-05T23:15:40.159Z,47.93
2019-04-05T23:25:50.464Z,49.77
2019-04-05T23:28:18.767Z,50.25
2019-04-05T23:30:47.076Z,42.17
2019-04-05T23:33:15.369Z,47.05
2019-04-05T23:35:43.788Z,49.30
2019-04-05T23:38:14.101Z,47.08
2019-04-05T23:40:42.453Z,51.18
2019-04-05T23:43:10.769Z,50.45
2019-04-05T23:45:39.087Z,55.95
2019-04-05T23:48:07.426Z,53.23
2019-04-05T23:50:35.767Z,51.80
2019-04-05T23:53:04.081Z,52.90
2019-04-05T23:55:33.449Z,53.95
2019-04-05T23:58:02.225Z,50.00
